Terminal Aerodrome Forecast
Issued by NWS Sterling, VA

Current Version | Previous Version | Graphics & Text | Print | Product List | Glossary On
Versions: 1 2 3 4 5 6 7 8 9 10 11 12 13 14 15 16 17 18 19 20 21 22 23 24 25 26 27
035
FTUS41 KLWX 212054 AAA
TAFDCA
TAF AMD
KDCA 212054Z 2121/2218 25010G18KT P6SM SCT080 BKN120 BKN250
     FM220400 23004KT P6SM SCT080
     FM221100 29004KT P6SM SCT250=

USA.gov is the U.S. government's official web portal to all federal, state and local government web resources and services.